createdAt,value
2022-08-17T00:03:20.953Z,2.7
2022-08-17T00:09:40.897Z,2.7
2022-08-17T00:16:03.919Z,3.7
2022-08-17T00:22:33.306Z,3.7
2022-08-17T00:28:46.911Z,2.6
2022-08-17T00:35:06.891Z,2.6
2022-08-17T00:41:29.909Z,11.1
2022-08-17T00:47:49.922Z,11.1
2022-08-17T00:54:12.891Z,2.5
2022-08-17T01:00:32.931Z,2.5
2022-08-17T01:06:55.902Z,3.4
2022-08-17T01:13:15.950Z,3.4
2022-08-17T01:19:38.877Z,3.2
2022-08-17T01:25:58.954Z,3.2
2022-08-17T01:32:21.888Z,1.9
2022-08-17T01:38:41.906Z,1.9
2022-08-17T01:45:04.916Z,3.4
2022-08-17T01:51:24.899Z,3.4
2022-08-17T01:57:47.923Z,2.6
2022-08-17T02:04:07.886Z,2.6
2022-08-17T02:10:33.775Z,2.5
2022-08-17T02:16:50.916Z,2.5
2022-08-17T02:23:13.960Z,8.5
2022-08-17T02:29:33.877Z,8.5
2022-08-17T02:35:56.903Z,2.1
2022-08-17T02:42:16.874Z,2.1
2022-08-17T02:48:39.898Z,2.9
2022-08-17T02:54:59.914Z,2.9
2022-08-17T03:01:22.927Z,2.5
2022-08-17T03:07:42.940Z,2.5
2022-08-17T03:14:05.894Z,4.6
2022-08-17T03:20:25.915Z,4.6
2022-08-17T03:26:48.904Z,2.9
2022-08-17T03:33:08.918Z,2.9
2022-08-17T03:39:31.926Z,4.4
2022-08-17T03:45:51.933Z,4.4
2022-08-17T04:01:44.849Z,2.2
2022-08-17T04:08:05.360Z,2.2
2022-08-17T04:14:27.907Z,3.9
2022-08-17T04:20:47.931Z,3.9
2022-08-17T04:27:10.912Z,5.4
2022-08-17T04:33:30.919Z,5.4
2022-08-17T04:39:54.027Z,2.8
2022-08-17T04:46:13.924Z,2.8
2022-08-17T04:52:42.636Z,2.9
2022-08-17T04:58:56.934Z,2.9
2022-08-17T05:05:19.951Z,1.3
2022-08-17T05:11:39.941Z,1.3
2022-08-17T05:18:02.942Z,3
2022-08-17T05:24:38.827Z,3
2022-08-17T05:30:45.903Z,2.8
2022-08-17T05:37:06.043Z,2.8
2022-08-17T05:43:28.970Z,3.7
2022-08-17T05:49:49.319Z,3.7
2022-08-17T05:56:24.008Z,3.7
2022-08-17T06:02:31.887Z,3.7
2022-08-17T06:08:54.944Z,2.2
2022-08-17T06:15:14.940Z,2.2
2022-08-17T06:21:37.908Z,5.9
2022-08-17T06:27:57.900Z,5.9
2022-08-17T06:34:20.893Z,3.9
2022-08-17T06:40:40.938Z,3.9
2022-08-17T06:47:03.891Z,2.1
2022-08-17T06:53:23.959Z,2.1
2022-08-17T06:59:53.269Z,3.1
2022-08-17T07:06:06.929Z,3.1
2022-08-17T07:12:29.892Z,4
2022-08-17T07:18:49.938Z,4
2022-08-17T07:25:12.899Z,2.5
2022-08-17T07:31:32.894Z,2.5
2022-08-17T07:37:55.942Z,2.7
2022-08-17T07:44:15.898Z,2.7
2022-08-17T07:50:38.948Z,1.8
2022-08-17T07:56:58.905Z,1.8
2022-08-17T08:03:22.104Z,5.1
2022-08-17T08:09:41.921Z,5.1
2022-08-17T08:16:04.888Z,2.6
2022-08-17T08:22:24.925Z,2.6
2022-08-17T08:28:47.889Z,2.1
2022-08-17T08:35:07.907Z,2.1
2022-08-17T08:41:30.941Z,5.3
2022-08-17T08:47:51.047Z,5.3
2022-08-17T08:54:13.938Z,2.1
2022-08-17T09:00:33.889Z,2.1
2022-08-17T09:06:56.903Z,2.2
2022-08-17T09:13:16.933Z,2.2
2022-08-17T09:19:39.882Z,4.1
2022-08-17T09:42:28.395Z,13.9
2022-08-17T09:48:47.885Z,13.9
2022-08-17T09:55:10.942Z,13.9
2022-08-17T10:01:31.054Z,13.9
2022-08-17T10:07:53.932Z,6.5
2022-08-17T10:14:36.114Z,6.5
2022-08-17T10:20:36.907Z,9
2022-08-17T10:26:57.470Z,9
2022-08-17T10:33:19.895Z,10.8
2022-08-17T10:39:50.685Z,10.8
2022-08-17T10:46:10.730Z,5.6
2022-08-17T10:52:22.889Z,5.6
2022-08-17T10:58:45.947Z,8.9
2022-08-17T11:05:05.937Z,8.9
2022-08-17T11:11:28.935Z,5.3
2022-08-17T11:17:48.894Z,5.3
2022-08-17T11:24:11.893Z,11.1
2022-08-17T11:30:31.933Z,11.1
2022-08-17T11:36:54.891Z,8.7
2022-08-17T11:43:14.938Z,8.7
2022-08-17T11:49:37.909Z,5.7
2022-08-17T11:55:57.880Z,5.7
2022-08-17T12:02:20.929Z,7.9
2022-08-17T12:08:40.888Z,7.9
2022-08-17T12:15:10.391Z,9.4
2022-08-17T12:21:23.949Z,9.4
2022-08-17T12:28:04.691Z,6.8
2022-08-17T12:34:07.044Z,6.8
2022-08-17T12:40:30.187Z,8.1
2022-08-17T12:46:50.252Z,8.1
2022-08-17T12:53:12.912Z,28.3
2022-08-17T12:59:32.964Z,28.3
2022-08-17T13:05:55.931Z,10.1
2022-08-17T13:12:15.893Z,10.1
2022-08-17T13:18:39.109Z,25.3
2022-08-17T13:24:58.917Z,25.3
2022-08-17T13:31:21.957Z,9.6
2022-08-17T13:37:42.658Z,9.6
2022-08-17T13:44:04.909Z,11
2022-08-17T13:50:24.959Z,11
2022-08-17T13:56:47.900Z,9.4
2022-08-17T14:03:07.903Z,9.4
2022-08-17T14:09:34.954Z,14.2
2022-08-17T14:15:53.845Z,14.2
2022-08-17T14:22:13.975Z,13.7
2022-08-17T14:28:33.894Z,13.7
2022-08-17T14:34:56.915Z,16.6
2022-08-17T14:41:21.542Z,16.6
2022-08-17T14:47:39.889Z,7
2022-08-17T14:53:59.937Z,7
2022-08-17T15:00:22.901Z,7.8
2022-08-17T15:06:42.909Z,7.8
2022-08-17T15:31:03.338Z,8.9
2022-08-17T15:37:22.905Z,8.9
2022-08-17T15:43:45.948Z,9.8
2022-08-17T15:50:05.909Z,9.8
2022-08-17T15:56:28.910Z,6.6
2022-08-17T16:03:15.830Z,6.6
2022-08-17T16:09:11.910Z,8.9
2022-08-17T16:15:32.143Z,8.9
2022-08-17T16:21:54.882Z,7.6
2022-08-17T16:28:14.921Z,7.6
2022-08-17T16:34:37.905Z,4.3
2022-08-17T16:40:57.929Z,4.3
2022-08-17T16:47:21.224Z,6.4
2022-08-17T16:53:40.891Z,6.4
2022-08-17T17:00:04.017Z,5.6
2022-08-17T17:06:23.918Z,5.6
2022-08-17T17:13:01.777Z,4.7
2022-08-17T17:19:07.476Z,4.7
2022-08-17T17:25:29.942Z,5.6
2022-08-17T17:31:49.888Z,5.6
2022-08-17T17:38:12.985Z,10.4
2022-08-17T17:44:32.973Z,10.4
2022-08-17T17:50:55.994Z,9.2
2022-08-17T17:57:15.998Z,9.2
2022-08-17T18:03:39.137Z,6.5
2022-08-17T18:10:01.306Z,6.5
2022-08-17T18:16:21.941Z,3.3
2022-08-17T18:22:42.075Z,3.3
2022-08-17T18:29:04.990Z,6.9
2022-08-17T18:35:25.321Z,6.9
2022-08-17T18:41:48.140Z,7.5
2022-08-17T18:48:07.885Z,7.5
2022-08-17T18:54:30.918Z,9.3
2022-08-17T19:00:50.938Z,9.3
2022-08-17T19:07:14.246Z,9
2022-08-17T19:13:34.153Z,9
2022-08-17T19:19:56.926Z,7.3
2022-08-17T19:26:17.434Z,7.3
2022-08-17T19:32:40.434Z,5.6
2022-08-17T19:38:59.881Z,5.6
2022-08-17T19:45:22.928Z,4.9
2022-08-17T19:51:42.918Z,4.9
2022-08-17T19:58:05.937Z,5.6
2022-08-17T20:04:25.879Z,5.6
2022-08-17T20:10:54.717Z,6.4
2022-08-17T20:17:08.875Z,6.4
2022-08-17T20:23:31.885Z,14.4
2022-08-17T20:46:01.977Z,9.3
2022-08-17T20:52:21.900Z,9.3
2022-08-17T20:58:44.903Z,6.4
2022-08-17T21:05:06.854Z,6.4
2022-08-17T21:11:56.481Z,4.8
2022-08-17T21:17:47.902Z,4.8
2022-08-17T21:24:11.811Z,4.7
2022-08-17T21:30:30.926Z,4.7
2022-08-17T21:36:53.894Z,5.2
2022-08-17T21:43:13.883Z,5.2
2022-08-17T21:49:37.758Z,9.2
2022-08-17T21:55:56.874Z,9.2
2022-08-17T22:02:19.950Z,6.3
2022-08-17T22:25:18.237Z,16.6
2022-08-17T22:31:37.895Z,16.6
2022-08-17T22:38:00.949Z,16.6
2022-08-17T22:44:20.879Z,16.6
2022-08-17T22:50:43.914Z,7
2022-08-17T22:57:03.926Z,7
2022-08-17T23:03:27.009Z,7.3
2022-08-17T23:09:46.940Z,7.3
2022-08-17T23:16:09.898Z,10.9
2022-08-17T23:22:29.877Z,10.9
2022-08-17T23:28:52.906Z,11.4
2022-08-17T23:35:12.887Z,11.4
2022-08-17T23:41:35.937Z,9.9
2022-08-17T23:47:55.918Z,9.9
2022-08-17T23:54:18.944Z,7.4
